Jacare, Brazil
Current Conditions -  °F | °C
As of 4:00 PM on Wednesday 28 Jan 2015 (Local Time) from SBMK Reporting Station
Rain Showers Rain Showers  
Wind Chill: 35°   Ceiling: Unl
Heat Index: 35°   Visibility: 6mi
Dew Point: 15°   Wind: 7mph
Humidity: 30%   Direction: NA
Pressure: 29.91"   Gusts: NA
Location:  16.47°S, 41.99°W
Report Text: SBMK 281800Z VRB06KT 9999 VCSH SCT048 SCT055TCU 35/15 Q1013
Loading
Personal Weather Stations






























Interactive Weather Map New forecast layout! Learn more

10-Day Weather Forecast

Advertisements
Track Severe Weather on mobile